sensor_id;sensor_type;location;lat;lon;timestamp;P1;durP1;ratioP1;P2;durP2;ratioP2
11113;SDS011;5610;52.154;9.198;2023-02-22T00:01:59;41.93;;;28.10;;
11113;SDS011;5610;52.154;9.198;2023-02-22T00:04:56;40.50;;;26.20;;
11113;SDS011;5610;52.154;9.198;2023-02-22T00:07:41;39.73;;;26.70;;
11113;SDS011;5610;52.154;9.198;2023-02-22T00:10:27;40.07;;;26.00;;
11113;SDS011;5610;52.154;9.198;2023-02-22T00:13:13;40.60;;;27.50;;
11113;SDS011;5610;52.154;9.198;2023-02-22T00:15:58;42.23;;;26.50;;
11113;SDS011;5610;52.154;9.198;2023-02-22T00:18:46;38.10;;;26.13;;
11113;SDS011;5610;52.154;9.198;2023-02-22T00:21:31;37.13;;;26.07;;
11113;SDS011;5610;52.154;9.198;2023-02-22T00:24:17;44.13;;;26.33;;
11113;SDS011;5610;52.154;9.198;2023-02-22T00:27:06;42.13;;;26.33;;
11113;SDS011;5610;52.154;9.198;2023-02-22T00:29:52;43.10;;;26.70;;
11113;SDS011;5610;52.154;9.198;2023-02-22T00:32:38;34.87;;;24.93;;
11113;SDS011;5610;52.154;9.198;2023-02-22T00:35:27;40.63;;;26.33;;
11113;SDS011;5610;52.154;9.198;2023-02-22T00:38:15;37.30;;;25.30;;
11113;SDS011;5610;52.154;9.198;2023-02-22T00:41:02;39.47;;;26.73;;
11113;SDS011;5610;52.154;9.198;2023-02-22T00:43:47;41.37;;;25.53;;
11113;SDS011;5610;52.154;9.198;2023-02-22T00:46:32;38.63;;;25.03;;
11113;SDS011;5610;52.154;9.198;2023-02-22T00:49:18;40.13;;;25.50;;
11113;SDS011;5610;52.154;9.198;2023-02-22T00:52:05;38.70;;;24.77;;
11113;SDS011;5610;52.154;9.198;2023-02-22T00:54:52;38.30;;;24.50;;
11113;SDS011;5610;52.154;9.198;2023-02-22T00:57:37;36.17;;;24.60;;
11113;SDS011;5610;52.154;9.198;2023-02-22T01:00:23;35.50;;;25.17;;
11113;SDS011;5610;52.154;9.198;2023-02-22T01:03:11;39.13;;;25.20;;
11113;SDS011;5610;52.154;9.198;2023-02-22T01:05:59;41.17;;;25.90;;
11113;SDS011;5610;52.154;9.198;2023-02-22T01:08:46;37.33;;;24.10;;
11113;SDS011;5610;52.154;9.198;2023-02-22T01:11:32;34.27;;;22.70;;
11113;SDS011;5610;52.154;9.198;2023-02-22T01:14:18;37.20;;;23.90;;
11113;SDS011;5610;52.154;9.198;2023-02-22T01:17:04;39.10;;;26.17;;
11113;SDS011;5610;52.154;9.198;2023-02-22T01:19:51;39.83;;;24.80;;
11113;SDS011;5610;52.154;9.198;2023-02-22T01:22:37;39.00;;;24.37;;
11113;SDS011;5610;52.154;9.198;2023-02-22T01:25:25;35.83;;;25.20;;
11113;SDS011;5610;52.154;9.198;2023-02-22T01:28:12;39.43;;;23.43;;
11113;SDS011;5610;52.154;9.198;2023-02-22T01:30:57;35.00;;;23.80;;
11113;SDS011;5610;52.154;9.198;2023-02-22T01:33:44;40.40;;;24.83;;
11113;SDS011;5610;52.154;9.198;2023-02-22T01:36:30;41.03;;;24.70;;
11113;SDS011;5610;52.154;9.198;2023-02-22T01:39:16;37.60;;;24.57;;
11113;SDS011;5610;52.154;9.198;2023-02-22T01:42:03;33.77;;;24.10;;
11113;SDS011;5610;52.154;9.198;2023-02-22T01:48:23;31.70;;;21.77;;
11113;SDS011;5610;52.154;9.198;2023-02-22T01:51:12;35.83;;;23.57;;
11113;SDS011;5610;52.154;9.198;2023-02-22T01:54:02;32.50;;;21.33;;
11113;SDS011;5610;52.154;9.198;2023-02-22T01:56:51;41.10;;;23.47;;
11113;SDS011;5610;52.154;9.198;2023-02-22T01:59:42;37.33;;;21.63;;
11113;SDS011;5610;52.154;9.198;2023-02-22T02:02:29;34.00;;;20.83;;
11113;SDS011;5610;52.154;9.198;2023-02-22T02:05:15;31.97;;;21.53;;
11113;SDS011;5610;52.154;9.198;2023-02-22T02:08:03;34.37;;;21.50;;
11113;SDS011;5610;52.154;9.198;2023-02-22T02:10:59;30.37;;;19.77;;
11113;SDS011;5610;52.154;9.198;2023-02-22T02:13:48;33.00;;;21.47;;
11113;SDS011;5610;52.154;9.198;2023-02-22T02:16:36;31.27;;;21.00;;
11113;SDS011;5610;52.154;9.198;2023-02-22T02:19:25;33.50;;;20.87;;
11113;SDS011;5610;52.154;9.198;2023-02-22T02:22:29;30.57;;;20.57;;
11113;SDS011;5610;52.154;9.198;2023-02-22T02:25:34;33.23;;;21.40;;
11113;SDS011;5610;52.154;9.198;2023-02-22T02:28:42;29.90;;;20.73;;
11113;SDS011;5610;52.154;9.198;2023-02-22T02:35:14;32.30;;;19.93;;
11113;SDS011;5610;52.154;9.198;2023-02-22T02:38:07;31.63;;;20.43;;
11113;SDS011;5610;52.154;9.198;2023-02-22T02:41:02;30.60;;;21.57;;
11113;SDS011;5610;52.154;9.198;2023-02-22T02:43:54;31.53;;;20.40;;
11113;SDS011;5610;52.154;9.198;2023-02-22T02:46:44;31.83;;;20.37;;
11113;SDS011;5610;52.154;9.198;2023-02-22T02:49:36;27.40;;;18.73;;
11113;SDS011;5610;52.154;9.198;2023-02-22T02:52:26;32.00;;;19.37;;
11113;SDS011;5610;52.154;9.198;2023-02-22T02:55:15;31.77;;;20.13;;
11113;SDS011;5610;52.154;9.198;2023-02-22T02:58:02;31.57;;;18.60;;
11113;SDS011;5610;52.154;9.198;2023-02-22T03:00:48;28.63;;;18.83;;
11113;SDS011;5610;52.154;9.198;2023-02-22T03:03:41;26.93;;;18.90;;
11113;SDS011;5610;52.154;9.198;2023-02-22T03:06:43;25.83;;;18.97;;
11113;SDS011;5610;52.154;9.198;2023-02-22T03:09:52;29.57;;;17.00;;
11113;SDS011;5610;52.154;9.198;2023-02-22T03:12:47;24.30;;;17.17;;
11113;SDS011;5610;52.154;9.198;2023-02-22T03:15:43;23.80;;;14.77;;
11113;SDS011;5610;52.154;9.198;2023-02-22T03:18:38;25.50;;;14.77;;
11113;SDS011;5610;52.154;9.198;2023-02-22T03:21:35;26.43;;;15.57;;
11113;SDS011;5610;52.154;9.198;2023-02-22T03:24:30;25.50;;;14.50;;
11113;SDS011;5610;52.154;9.198;2023-02-22T03:27:22;25.20;;;15.67;;
11113;SDS011;5610;52.154;9.198;2023-02-22T03:30:23;26.00;;;16.40;;
11113;SDS011;5610;52.154;9.198;2023-02-22T03:33:13;21.93;;;15.10;;
11113;SDS011;5610;52.154;9.198;2023-02-22T03:36:05;22.10;;;15.70;;
11113;SDS011;5610;52.154;9.198;2023-02-22T03:38:58;22.67;;;14.63;;
11113;SDS011;5610;52.154;9.198;2023-02-22T03:41:47;22.90;;;14.10;;
11113;SDS011;5610;52.154;9.198;2023-02-22T03:44:38;21.00;;;13.97;;
11113;SDS011;5610;52.154;9.198;2023-02-22T03:47:27;20.67;;;13.17;;
11113;SDS011;5610;52.154;9.198;2023-02-22T03:50:19;24.80;;;15.80;;
11113;SDS011;5610;52.154;9.198;2023-02-22T03:53:07;17.80;;;11.97;;
11113;SDS011;5610;52.154;9.198;2023-02-22T03:55:57;21.43;;;14.07;;
11113;SDS011;5610;52.154;9.198;2023-02-22T03:58:46;23.13;;;13.97;;
11113;SDS011;5610;52.154;9.198;2023-02-22T04:01:33;22.50;;;14.53;;
11113;SDS011;5610;52.154;9.198;2023-02-22T04:04:19;18.03;;;12.67;;
11113;SDS011;5610;52.154;9.198;2023-02-22T04:07:07;22.93;;;13.50;;
11113;SDS011;5610;52.154;9.198;2023-02-22T04:09:53;18.57;;;12.47;;
11113;SDS011;5610;52.154;9.198;2023-02-22T04:12:39;18.57;;;11.50;;
11113;SDS011;5610;52.154;9.198;2023-02-22T04:15:25;19.40;;;11.67;;
11113;SDS011;5610;52.154;9.198;2023-02-22T04:18:16;18.93;;;12.80;;
11113;SDS011;5610;52.154;9.198;2023-02-22T04:21:03;18.77;;;10.70;;
11113;SDS011;5610;52.154;9.198;2023-02-22T04:23:56;16.93;;;11.97;;
11113;SDS011;5610;52.154;9.198;2023-02-22T04:26:41;17.10;;;10.23;;
11113;SDS011;5610;52.154;9.198;2023-02-22T04:29:29;17.10;;;11.27;;
11113;SDS011;5610;52.154;9.198;2023-02-22T04:32:15;18.00;;;11.50;;
11113;SDS011;5610;52.154;9.198;2023-02-22T04:35:00;15.20;;;11.20;;
11113;SDS011;5610;52.154;9.198;2023-02-22T04:37:47;18.87;;;12.10;;
11113;SDS011;5610;52.154;9.198;2023-02-22T04:40:34;19.37;;;10.87;;
11113;SDS011;5610;52.154;9.198;2023-02-22T04:43:19;18.30;;;10.70;;
11113;SDS011;5610;52.154;9.198;2023-02-22T04:46:10;20.27;;;12.33;;
11113;SDS011;5610;52.154;9.198;2023-02-22T04:48:57;18.80;;;11.20;;
11113;SDS011;5610;52.154;9.198;2023-02-22T04:51:45;20.87;;;12.80;;
11113;SDS011;5610;52.154;9.198;2023-02-22T04:54:31;21.90;;;14.00;;
11113;SDS011;5610;52.154;9.198;2023-02-22T04:57:16;23.17;;;14.70;;
11113;SDS011;5610;52.154;9.198;2023-02-22T05:00:02;26.07;;;14.87;;
11113;SDS011;5610;52.154;9.198;2023-02-22T05:02:49;19.93;;;15.10;;
11113;SDS011;5610;52.154;9.198;2023-02-22T05:05:35;32.47;;;21.10;;
11113;SDS011;5610;52.154;9.198;2023-02-22T05:08:20;33.37;;;22.93;;
11113;SDS011;5610;52.154;9.198;2023-02-22T05:11:05;34.77;;;21.97;;
11113;SDS011;5610;52.154;9.198;2023-02-22T05:13:51;30.87;;;18.90;;
11113;SDS011;5610;52.154;9.198;2023-02-22T05:16:37;25.67;;;19.13;;
11113;SDS011;5610;52.154;9.198;2023-02-22T05:19:24;31.80;;;20.07;;
11113;SDS011;5610;52.154;9.198;2023-02-22T05:22:09;24.97;;;15.60;;
11113;SDS011;5610;52.154;9.198;2023-02-22T05:24:54;28.33;;;17.40;;
11113;SDS011;5610;52.154;9.198;2023-02-22T05:27:40;29.73;;;18.10;;
11113;SDS011;5610;52.154;9.198;2023-02-22T05:30:27;29.63;;;18.93;;
11113;SDS011;5610;52.154;9.198;2023-02-22T05:33:14;28.70;;;18.57;;
11113;SDS011;5610;52.154;9.198;2023-02-22T05:36:01;25.57;;;15.70;;
11113;SDS011;5610;52.154;9.198;2023-02-22T05:38:46;30.20;;;19.00;;
11113;SDS011;5610;52.154;9.198;2023-02-22T05:41:32;32.17;;;18.97;;
11113;SDS011;5610;52.154;9.198;2023-02-22T05:44:17;28.50;;;18.53;;
11113;SDS011;5610;52.154;9.198;2023-02-22T05:47:03;32.77;;;20.70;;
11113;SDS011;5610;52.154;9.198;2023-02-22T05:49:48;37.03;;;21.73;;
11113;SDS011;5610;52.154;9.198;2023-02-22T05:52:35;35.70;;;21.30;;
11113;SDS011;5610;52.154;9.198;2023-02-22T05:55:22;34.20;;;20.07;;
11113;SDS011;5610;52.154;9.198;2023-02-22T05:58:09;30.80;;;21.30;;
11113;SDS011;5610;52.154;9.198;2023-02-22T06:00:55;33.57;;;21.37;;
11113;SDS011;5610;52.154;9.198;2023-02-22T06:03:40;34.73;;;20.63;;
11113;SDS011;5610;52.154;9.198;2023-02-22T06:06:26;31.30;;;20.37;;
11113;SDS011;5610;52.154;9.198;2023-02-22T06:09:12;35.13;;;20.10;;
11113;SDS011;5610;52.154;9.198;2023-02-22T06:11:58;31.70;;;20.33;;
11113;SDS011;5610;52.154;9.198;2023-02-22T06:14:43;30.53;;;20.37;;
11113;SDS011;5610;52.154;9.198;2023-02-22T06:17:29;31.77;;;21.87;;
11113;SDS011;5610;52.154;9.198;2023-02-22T06:20:16;33.93;;;21.30;;
11113;SDS011;5610;52.154;9.198;2023-02-22T06:23:04;33.10;;;21.63;;
11113;SDS011;5610;52.154;9.198;2023-02-22T06:25:50;35.30;;;21.20;;
11113;SDS011;5610;52.154;9.198;2023-02-22T06:28:36;33.30;;;21.90;;
11113;SDS011;5610;52.154;9.198;2023-02-22T06:31:22;33.30;;;21.87;;
11113;SDS011;5610;52.154;9.198;2023-02-22T06:34:07;33.30;;;21.27;;
11113;SDS011;5610;52.154;9.198;2023-02-22T06:36:52;33.03;;;22.53;;
11113;SDS011;5610;52.154;9.198;2023-02-22T06:39:37;31.23;;;21.47;;
11113;SDS011;5610;52.154;9.198;2023-02-22T06:42:24;32.67;;;20.40;;
11113;SDS011;5610;52.154;9.198;2023-02-22T06:45:09;35.60;;;23.00;;
11113;SDS011;5610;52.154;9.198;2023-02-22T06:47:55;32.10;;;20.77;;
11113;SDS011;5610;52.154;9.198;2023-02-22T06:50:40;36.70;;;22.20;;
11113;SDS011;5610;52.154;9.198;2023-02-22T06:53:25;30.37;;;20.43;;
11113;SDS011;5610;52.154;9.198;2023-02-22T06:56:11;30.40;;;21.73;;
11113;SDS011;5610;52.154;9.198;2023-02-22T06:58:57;33.70;;;20.87;;
11113;SDS011;5610;52.154;9.198;2023-02-22T07:01:44;37.90;;;22.10;;
11113;SDS011;5610;52.154;9.198;2023-02-22T07:04:30;34.77;;;21.73;;
11113;SDS011;5610;52.154;9.198;2023-02-22T07:07:15;34.80;;;21.70;;
11113;SDS011;5610;52.154;9.198;2023-02-22T07:10:01;42.13;;;22.97;;
11113;SDS011;5610;52.154;9.198;2023-02-22T07:12:46;33.97;;;21.13;;
11113;SDS011;5610;52.154;9.198;2023-02-22T07:15:34;36.20;;;23.77;;
11113;SDS011;5610;52.154;9.198;2023-02-22T07:18:20;38.00;;;22.67;;
11113;SDS011;5610;52.154;9.198;2023-02-22T07:21:06;37.97;;;23.07;;
11113;SDS011;5610;52.154;9.198;2023-02-22T07:23:52;47.10;;;22.97;;
11113;SDS011;5610;52.154;9.198;2023-02-22T07:26:39;35.47;;;24.00;;
11113;SDS011;5610;52.154;9.198;2023-02-22T07:29:25;36.87;;;23.20;;
11113;SDS011;5610;52.154;9.198;2023-02-22T07:32:11;35.67;;;23.37;;
11113;SDS011;5610;52.154;9.198;2023-02-22T07:34:57;36.60;;;23.83;;
11113;SDS011;5610;52.154;9.198;2023-02-22T07:37:42;33.30;;;21.90;;
11113;SDS011;5610;52.154;9.198;2023-02-22T07:40:28;39.50;;;22.50;;
11113;SDS011;5610;52.154;9.198;2023-02-22T07:43:14;34.73;;;21.87;;
11113;SDS011;5610;52.154;9.198;2023-02-22T07:46:00;37.10;;;23.40;;
11113;SDS011;5610;52.154;9.198;2023-02-22T07:48:46;33.53;;;22.20;;
11113;SDS011;5610;52.154;9.198;2023-02-22T07:51:32;33.50;;;22.40;;
11113;SDS011;5610;52.154;9.198;2023-02-22T07:54:17;31.37;;;21.60;;
11113;SDS011;5610;52.154;9.198;2023-02-22T07:57:02;35.50;;;23.27;;
11113;SDS011;5610;52.154;9.198;2023-02-22T07:59:48;37.50;;;25.00;;
11113;SDS011;5610;52.154;9.198;2023-02-22T08:02:34;37.83;;;24.67;;
11113;SDS011;5610;52.154;9.198;2023-02-22T08:05:22;38.87;;;23.50;;
11113;SDS011;5610;52.154;9.198;2023-02-22T08:08:08;34.50;;;24.97;;
11113;SDS011;5610;52.154;9.198;2023-02-22T08:10:54;37.27;;;24.20;;
11113;SDS011;5610;52.154;9.198;2023-02-22T08:13:39;36.63;;;26.00;;
11113;SDS011;5610;52.154;9.198;2023-02-22T08:16:25;33.17;;;23.73;;
11113;SDS011;5610;52.154;9.198;2023-02-22T08:19:10;37.40;;;24.07;;
11113;SDS011;5610;52.154;9.198;2023-02-22T08:21:57;38.73;;;24.70;;
11113;SDS011;5610;52.154;9.198;2023-02-22T08:24:42;38.07;;;26.63;;
11113;SDS011;5610;52.154;9.198;2023-02-22T08:27:28;33.27;;;24.23;;
11113;SDS011;5610;52.154;9.198;2023-02-22T08:30:15;34.67;;;24.83;;
11113;SDS011;5610;52.154;9.198;2023-02-22T08:33:02;34.80;;;25.30;;
11113;SDS011;5610;52.154;9.198;2023-02-22T08:35:48;35.87;;;25.80;;
11113;SDS011;5610;52.154;9.198;2023-02-22T08:38:35;36.53;;;25.83;;
11113;SDS011;5610;52.154;9.198;2023-02-22T08:41:21;34.00;;;24.20;;
11113;SDS011;5610;52.154;9.198;2023-02-22T08:44:06;39.40;;;25.03;;
11113;SDS011;5610;52.154;9.198;2023-02-22T08:46:51;34.07;;;24.17;;
11113;SDS011;5610;52.154;9.198;2023-02-22T08:49:38;35.43;;;25.77;;
11113;SDS011;5610;52.154;9.198;2023-02-22T08:52:25;37.70;;;25.70;;
11113;SDS011;5610;52.154;9.198;2023-02-22T08:55:12;35.20;;;24.00;;
11113;SDS011;5610;52.154;9.198;2023-02-22T08:57:58;35.83;;;26.07;;
11113;SDS011;5610;52.154;9.198;2023-02-22T09:00:45;34.60;;;25.43;;
11113;SDS011;5610;52.154;9.198;2023-02-22T09:03:30;39.10;;;25.90;;
11113;SDS011;5610;52.154;9.198;2023-02-22T09:06:15;36.27;;;26.53;;
11113;SDS011;5610;52.154;9.198;2023-02-22T09:09:01;36.17;;;26.43;;
11113;SDS011;5610;52.154;9.198;2023-02-22T09:11:48;34.60;;;24.73;;
11113;SDS011;5610;52.154;9.198;2023-02-22T09:14:33;34.80;;;26.90;;
11113;SDS011;5610;52.154;9.198;2023-02-22T09:17:18;38.93;;;26.33;;
11113;SDS011;5610;52.154;9.198;2023-02-22T09:20:04;32.93;;;25.30;;
11113;SDS011;5610;52.154;9.198;2023-02-22T09:22:50;35.33;;;27.17;;
11113;SDS011;5610;52.154;9.198;2023-02-22T09:25:37;31.00;;;24.93;;
11113;SDS011;5610;52.154;9.198;2023-02-22T09:28:25;33.50;;;27.07;;
11113;SDS011;5610;52.154;9.198;2023-02-22T09:31:10;37.67;;;26.87;;
11113;SDS011;5610;52.154;9.198;2023-02-22T09:33:56;34.13;;;26.80;;
11113;SDS011;5610;52.154;9.198;2023-02-22T09:36:41;33.93;;;27.20;;
11113;SDS011;5610;52.154;9.198;2023-02-22T09:39:29;35.83;;;26.43;;
11113;SDS011;5610;52.154;9.198;2023-02-22T09:42:20;36.90;;;27.50;;
11113;SDS011;5610;52.154;9.198;2023-02-22T09:45:14;36.67;;;27.70;;
11113;SDS011;5610;52.154;9.198;2023-02-22T09:48:05;35.43;;;27.90;;
11113;SDS011;5610;52.154;9.198;2023-02-22T09:50:52;36.57;;;26.10;;
11113;SDS011;5610;52.154;9.198;2023-02-22T09:53:44;33.40;;;26.43;;
11113;SDS011;5610;52.154;9.198;2023-02-22T09:56:32;33.03;;;26.90;;
11113;SDS011;5610;52.154;9.198;2023-02-22T09:59:21;34.40;;;27.10;;
11113;SDS011;5610;52.154;9.198;2023-02-22T10:02:15;31.73;;;25.83;;
11113;SDS011;5610;52.154;9.198;2023-02-22T10:05:09;32.27;;;26.60;;
11113;SDS011;5610;52.154;9.198;2023-02-22T10:08:01;29.33;;;24.93;;
11113;SDS011;5610;52.154;9.198;2023-02-22T10:10:51;32.23;;;26.03;;
11113;SDS011;5610;52.154;9.198;2023-02-22T10:13:54;30.33;;;26.00;;
11113;SDS011;5610;52.154;9.198;2023-02-22T10:16:50;31.63;;;26.70;;
11113;SDS011;5610;52.154;9.198;2023-02-22T10:19:45;31.33;;;24.90;;
11113;SDS011;5610;52.154;9.198;2023-02-22T10:22:44;27.47;;;23.83;;
11113;SDS011;5610;52.154;9.198;2023-02-22T10:25:47;28.60;;;23.63;;
11113;SDS011;5610;52.154;9.198;2023-02-22T10:28:41;27.20;;;24.13;;
11113;SDS011;5610;52.154;9.198;2023-02-22T10:31:40;24.80;;;22.00;;
11113;SDS011;5610;52.154;9.198;2023-02-22T10:34:29;25.93;;;23.20;;
11113;SDS011;5610;52.154;9.198;2023-02-22T10:37:25;25.27;;;22.57;;
11113;SDS011;5610;52.154;9.198;2023-02-22T10:40:14;25.40;;;21.57;;
11113;SDS011;5610;52.154;9.198;2023-02-22T10:43:03;22.97;;;20.67;;
11113;SDS011;5610;52.154;9.198;2023-02-22T10:45:51;23.90;;;21.30;;
11113;SDS011;5610;52.154;9.198;2023-02-22T10:48:39;23.33;;;20.90;;
11113;SDS011;5610;52.154;9.198;2023-02-22T10:51:27;22.40;;;20.10;;
11113;SDS011;5610;52.154;9.198;2023-02-22T10:54:20;21.37;;;19.27;;
11113;SDS011;5610;52.154;9.198;2023-02-22T10:57:10;20.63;;;18.53;;
11113;SDS011;5610;52.154;9.198;2023-02-22T10:59:56;20.20;;;18.10;;
11113;SDS011;5610;52.154;9.198;2023-02-22T11:02:48;19.80;;;17.80;;
11113;SDS011;5610;52.154;9.198;2023-02-22T11:05:36;19.70;;;17.70;;
11113;SDS011;5610;52.154;9.198;2023-02-22T11:08:24;18.73;;;16.90;;
11113;SDS011;5610;52.154;9.198;2023-02-22T11:11:21;19.63;;;17.73;;
11113;SDS011;5610;52.154;9.198;2023-02-22T11:14:09;19.80;;;17.90;;
11113;SDS011;5610;52.154;9.198;2023-02-22T11:16:55;18.33;;;16.63;;
11113;SDS011;5610;52.154;9.198;2023-02-22T11:19:44;18.53;;;16.63;;
11113;SDS011;5610;52.154;9.198;2023-02-22T11:22:35;17.13;;;15.37;;
11113;SDS011;5610;52.154;9.198;2023-02-22T11:25:26;17.60;;;16.00;;
11113;SDS011;5610;52.154;9.198;2023-02-22T11:28:16;18.20;;;16.40;;
11113;SDS011;5610;52.154;9.198;2023-02-22T11:31:14;17.00;;;15.30;;
11113;SDS011;5610;52.154;9.198;2023-02-22T11:34:02;14.87;;;13.47;;
11113;SDS011;5610;52.154;9.198;2023-02-22T11:36:47;15.93;;;14.27;;
11113;SDS011;5610;52.154;9.198;2023-02-22T11:39:33;15.13;;;13.60;;
11113;SDS011;5610;52.154;9.198;2023-02-22T11:42:21;16.30;;;14.70;;
11113;SDS011;5610;52.154;9.198;2023-02-22T11:45:12;15.67;;;13.97;;
11113;SDS011;5610;52.154;9.198;2023-02-22T11:48:04;14.23;;;12.93;;
11113;SDS011;5610;52.154;9.198;2023-02-22T11:50:54;14.53;;;13.13;;
11113;SDS011;5610;52.154;9.198;2023-02-22T11:54:01;14.40;;;13.00;;
11113;SDS011;5610;52.154;9.198;2023-02-22T11:56:58;13.77;;;12.57;;
11113;SDS011;5610;52.154;9.198;2023-02-22T11:59:56;14.20;;;12.70;;
11113;SDS011;5610;52.154;9.198;2023-02-22T12:03:01;12.90;;;11.80;;
11113;SDS011;5610;52.154;9.198;2023-02-22T12:06:03;13.07;;;11.97;;
11113;SDS011;5610;52.154;9.198;2023-02-22T12:09:02;12.47;;;11.27;;
11113;SDS011;5610;52.154;9.198;2023-02-22T12:12:00;13.20;;;12.00;;
11113;SDS011;5610;52.154;9.198;2023-02-22T12:14:57;13.73;;;12.33;;
11113;SDS011;5610;52.154;9.198;2023-02-22T12:17:54;13.33;;;12.03;;
11113;SDS011;5610;52.154;9.198;2023-02-22T12:20:52;12.87;;;11.67;;
11113;SDS011;5610;52.154;9.198;2023-02-22T12:23:42;12.93;;;11.73;;
11113;SDS011;5610;52.154;9.198;2023-02-22T12:26:35;12.43;;;11.23;;
11113;SDS011;5610;52.154;9.198;2023-02-22T12:29:25;12.43;;;11.30;;
11113;SDS011;5610;52.154;9.198;2023-02-22T12:32:16;11.47;;;10.47;;
11113;SDS011;5610;52.154;9.198;2023-02-22T12:35:11;11.97;;;10.40;;
11113;SDS011;5610;52.154;9.198;2023-02-22T12:38:02;12.03;;;10.80;;
11113;SDS011;5610;52.154;9.198;2023-02-22T12:40:53;11.80;;;10.60;;
11113;SDS011;5610;52.154;9.198;2023-02-22T12:43:47;11.03;;;10.03;;
11113;SDS011;5610;52.154;9.198;2023-02-22T12:46:38;11.00;;;10.00;;
11113;SDS011;5610;52.154;9.198;2023-02-22T12:49:29;11.97;;;10.07;;
11113;SDS011;5610;52.154;9.198;2023-02-22T12:52:20;10.50;;;9.27;;
11113;SDS011;5610;52.154;9.198;2023-02-22T12:55:19;11.53;;;10.53;;
11113;SDS011;5610;52.154;9.198;2023-02-22T12:58:08;10.67;;;9.70;;
11113;SDS011;5610;52.154;9.198;2023-02-22T13:01:05;10.40;;;9.40;;
11113;SDS011;5610;52.154;9.198;2023-02-22T13:03:58;12.50;;;9.40;;
11113;SDS011;5610;52.154;9.198;2023-02-22T13:06:47;9.60;;;8.80;;
11113;SDS011;5610;52.154;9.198;2023-02-22T13:12:59;8.30;;;7.50;;
11113;SDS011;5610;52.154;9.198;2023-02-22T13:15:53;9.77;;;8.80;;
11113;SDS011;5610;52.154;9.198;2023-02-22T13:18:47;8.50;;;7.80;;
11113;SDS011;5610;52.154;9.198;2023-02-22T13:21:43;9.83;;;8.37;;
11113;SDS011;5610;52.154;9.198;2023-02-22T13:24:35;9.07;;;8.27;;
11113;SDS011;5610;52.154;9.198;2023-02-22T13:27:33;8.43;;;7.63;;
11113;SDS011;5610;52.154;9.198;2023-02-22T13:30:23;8.07;;;7.37;;
11113;SDS011;5610;52.154;9.198;2023-02-22T13:33:23;8.80;;;8.00;;
11113;SDS011;5610;52.154;9.198;2023-02-22T13:36:23;9.80;;;8.37;;
11113;SDS011;5610;52.154;9.198;2023-02-22T13:39:23;8.53;;;7.73;;
11113;SDS011;5610;52.154;9.198;2023-02-22T13:42:27;8.87;;;8.07;;
11113;SDS011;5610;52.154;9.198;2023-02-22T13:45:34;8.43;;;7.63;;
11113;SDS011;5610;52.154;9.198;2023-02-22T13:52:02;7.17;;;6.53;;
11113;SDS011;5610;52.154;9.198;2023-02-22T13:54:53;6.83;;;6.23;;
11113;SDS011;5610;52.154;9.198;2023-02-22T13:57:45;7.43;;;6.73;;
11113;SDS011;5610;52.154;9.198;2023-02-22T14:00:43;7.57;;;6.67;;
11113;SDS011;5610;52.154;9.198;2023-02-22T14:03:31;8.00;;;7.20;;
11113;SDS011;5610;52.154;9.198;2023-02-22T14:06:36;6.93;;;6.33;;
11113;SDS011;5610;52.154;9.198;2023-02-22T14:12:48;8.20;;;6.40;;
11113;SDS011;5610;52.154;9.198;2023-02-22T14:15:34;7.00;;;6.03;;
11113;SDS011;5610;52.154;9.198;2023-02-22T14:18:19;9.90;;;6.17;;
11113;SDS011;5610;52.154;9.198;2023-02-22T14:21:05;7.33;;;6.63;;
11113;SDS011;5610;52.154;9.198;2023-02-22T14:23:52;7.10;;;6.43;;
11113;SDS011;5610;52.154;9.198;2023-02-22T14:26:39;6.13;;;5.53;;
11113;SDS011;5610;52.154;9.198;2023-02-22T14:29:37;7.00;;;6.40;;
11113;SDS011;5610;52.154;9.198;2023-02-22T14:32:36;6.93;;;6.30;;
11113;SDS011;5610;52.154;9.198;2023-02-22T14:35:21;8.43;;;6.60;;
11113;SDS011;5610;52.154;9.198;2023-02-22T14:38:12;9.60;;;7.03;;
11113;SDS011;5610;52.154;9.198;2023-02-22T14:41:02;7.77;;;6.40;;
11113;SDS011;5610;52.154;9.198;2023-02-22T14:43:48;7.27;;;6.57;;
11113;SDS011;5610;52.154;9.198;2023-02-22T14:46:35;7.83;;;7.03;;
11113;SDS011;5610;52.154;9.198;2023-02-22T14:49:23;7.00;;;6.40;;
11113;SDS011;5610;52.154;9.198;2023-02-22T14:52:17;7.60;;;6.90;;
11113;SDS011;5610;52.154;9.198;2023-02-22T14:55:15;6.63;;;5.63;;
11113;SDS011;5610;52.154;9.198;2023-02-22T14:58:04;6.23;;;5.03;;
11113;SDS011;5610;52.154;9.198;2023-02-22T15:00:54;6.30;;;5.33;;
11113;SDS011;5610;52.154;9.198;2023-02-22T15:03:42;6.67;;;5.97;;
11113;SDS011;5610;52.154;9.198;2023-02-22T15:06:27;6.30;;;5.70;;
11113;SDS011;5610;52.154;9.198;2023-02-22T15:09:15;7.13;;;5.90;;
11113;SDS011;5610;52.154;9.198;2023-02-22T15:12:11;5.70;;;5.10;;
11113;SDS011;5610;52.154;9.198;2023-02-22T15:15:11;6.47;;;5.43;;
11113;SDS011;5610;52.154;9.198;2023-02-22T15:18:05;8.10;;;6.23;;
11113;SDS011;5610;52.154;9.198;2023-02-22T15:21:05;6.67;;;6.00;;
11113;SDS011;5610;52.154;9.198;2023-02-22T15:23:53;6.60;;;5.10;;
11113;SDS011;5610;52.154;9.198;2023-02-22T15:26:40;9.80;;;6.17;;
11113;SDS011;5610;52.154;9.198;2023-02-22T15:29:28;6.80;;;5.43;;
11113;SDS011;5610;52.154;9.198;2023-02-22T15:32:19;5.40;;;4.90;;
11113;SDS011;5610;52.154;9.198;2023-02-22T15:35:15;7.80;;;5.27;;
11113;SDS011;5610;52.154;9.198;2023-02-22T15:38:04;6.10;;;5.60;;
11113;SDS011;5610;52.154;9.198;2023-02-22T15:40:57;6.17;;;5.47;;
11113;SDS011;5610;52.154;9.198;2023-02-22T15:43:55;6.37;;;5.43;;
11113;SDS011;5610;52.154;9.198;2023-02-22T15:46:42;5.10;;;4.60;;
11113;SDS011;5610;52.154;9.198;2023-02-22T15:49:27;4.63;;;4.23;;
11113;SDS011;5610;52.154;9.198;2023-02-22T15:52:17;5.20;;;4.53;;
11113;SDS011;5610;52.154;9.198;2023-02-22T15:55:08;5.30;;;4.30;;
11113;SDS011;5610;52.154;9.198;2023-02-22T15:57:55;6.43;;;5.30;;
11113;SDS011;5610;52.154;9.198;2023-02-22T16:00:45;6.80;;;5.67;;
11113;SDS011;5610;52.154;9.198;2023-02-22T16:03:33;6.90;;;5.90;;
11113;SDS011;5610;52.154;9.198;2023-02-22T16:06:28;5.30;;;4.53;;
11113;SDS011;5610;52.154;9.198;2023-02-22T16:09:18;5.70;;;4.87;;
11113;SDS011;5610;52.154;9.198;2023-02-22T16:12:19;5.40;;;4.70;;
11113;SDS011;5610;52.154;9.198;2023-02-22T16:15:13;5.53;;;4.90;;
11113;SDS011;5610;52.154;9.198;2023-02-22T16:18:16;7.47;;;5.10;;
11113;SDS011;5610;52.154;9.198;2023-02-22T16:21:09;11.40;;;4.83;;
11113;SDS011;5610;52.154;9.198;2023-02-22T16:23:56;5.90;;;5.07;;
11113;SDS011;5610;52.154;9.198;2023-02-22T16:26:47;6.17;;;5.03;;
11113;SDS011;5610;52.154;9.198;2023-02-22T16:30:07;5.33;;;4.60;;
11113;SDS011;5610;52.154;9.198;2023-02-22T16:33:08;6.53;;;5.27;;
11113;SDS011;5610;52.154;9.198;2023-02-22T16:35:56;7.33;;;5.47;;
11113;SDS011;5610;52.154;9.198;2023-02-22T16:38:41;7.37;;;4.53;;
11113;SDS011;5610;52.154;9.198;2023-02-22T16:41:30;8.50;;;5.57;;
11113;SDS011;5610;52.154;9.198;2023-02-22T16:44:15;5.80;;;5.13;;
11113;SDS011;5610;52.154;9.198;2023-02-22T16:47:02;6.60;;;5.83;;
11113;SDS011;5610;52.154;9.198;2023-02-22T16:49:48;6.40;;;5.70;;
11113;SDS011;5610;52.154;9.198;2023-02-22T16:52:36;6.37;;;5.70;;
11113;SDS011;5610;52.154;9.198;2023-02-22T16:55:23;7.73;;;6.93;;
11113;SDS011;5610;52.154;9.198;2023-02-22T16:58:09;13.80;;;8.23;;
11113;SDS011;5610;52.154;9.198;2023-02-22T17:00:56;9.73;;;8.57;;
11113;SDS011;5610;52.154;9.198;2023-02-22T17:03:43;7.90;;;6.67;;
11113;SDS011;5610;52.154;9.198;2023-02-22T17:06:29;8.37;;;5.63;;
11113;SDS011;5610;52.154;9.198;2023-02-22T17:09:14;8.00;;;6.53;;
11113;SDS011;5610;52.154;9.198;2023-02-22T17:12:02;6.50;;;5.90;;